Time;durP1;ratioP1;P1;durP2;ratioP2;P2;SDS_P1;SDS_P2;PMS_P1;PMS_P2;Temp;Humidity;BMP_temperature;BMP_pressure;BME280_temperature;BME280_humidity;BME280_pressure;Samples;Min_cycle;Max_cycle;Signal;HPM_P1;HPM_P2
2021/03/14 00:00:13;;;;;;;38.43;19.33;;;5.20;91.90;;;;;;5069749;28;20209;-76
2021/03/14 00:02:38;;;;;;;30.00;17.90;;;5.20;91.80;;;;;;5069047;28;20229;-76
2021/03/14 00:05:05;;;;;;;31.77;18.53;;;5.20;91.80;;;;;;5051145;28;20191;-76
2021/03/14 00:07:31;;;;;;;42.80;18.40;;;5.20;91.90;;;;;;5051231;28;20186;-76
2021/03/14 00:09:57;;;;;;;31.97;18.37;;;5.20;91.90;;;;;;5057147;28;20636;-82
2021/03/14 00:12:23;;;;;;;36.47;19.57;;;5.10;92.00;;;;;;5037892;28;20182;-82
2021/03/14 00:14:48;;;;;;;44.27;20.23;;;5.10;91.90;;;;;;5052655;28;20194;-83
2021/03/14 00:17:14;;;;;;;31.03;15.50;;;5.10;91.90;;;;;;5058091;28;20195;-81
2021/03/14 00:19:40;;;;;;;23.37;14.30;;;5.10;91.80;;;;;;5036391;28;20280;-82
2021/03/14 00:22:06;;;;;;;24.83;14.40;;;5.00;92.70;;;;;;5071408;28;20175;-82
2021/03/14 00:24:31;;;;;;;30.23;15.00;;;5.00;92.50;;;;;;5060932;28;20183;-82
2021/03/14 00:26:57;;;;;;;22.07;13.50;;;4.90;92.30;;;;;;5056203;28;20183;-82
2021/03/14 00:29:23;;;;;;;23.17;13.50;;;4.90;92.10;;;;;;5054097;28;20183;-84
2021/03/14 00:31:50;;;;;;;24.93;13.97;;;4.90;92.00;;;;;;5038919;28;20184;-84
2021/03/14 00:34:15;;;;;;;22.83;11.83;;;4.90;92.10;;;;;;5078441;28;20262;-84
2021/03/14 00:36:41;;;;;;;22.07;11.73;;;4.80;92.20;;;;;;5068559;28;20265;-82
2021/03/14 00:39:07;;;;;;;29.53;14.30;;;4.80;92.80;;;;;;5060603;28;20184;-83
2021/03/14 00:41:32;;;;;;;28.60;13.43;;;4.80;93.10;;;;;;5049988;28;20199;-82
2021/03/14 00:43:58;;;;;;;17.33;10.57;;;4.70;92.90;;;;;;5052798;28;20183;-82
2021/03/14 00:46:34;;;;;;;17.87;10.30;;;4.70;93.20;;;;;;5047170;28;20187;-81
2021/03/14 00:48:59;;;;;;;17.30;9.30;;;4.70;92.90;;;;;;5047848;28;20183;-82
2021/03/14 00:51:25;;;;;;;14.53;9.57;;;4.70;93.00;;;;;;5049818;28;20976;-82
2021/03/14 00:53:51;;;;;;;13.37;9.57;;;4.70;92.90;;;;;;5064410;28;20183;-83
2021/03/14 00:56:17;;;;;;;23.90;12.57;;;4.70;92.80;;;;;;5081838;28;20198;-84
2021/03/14 00:58:43;;;;;;;17.53;11.20;;;4.60;92.70;;;;;;5068053;28;20179;-81
2021/03/14 01:01:09;;;;;;;15.80;10.30;;;4.60;92.80;;;;;;5052881;28;20293;-83
2021/03/14 01:03:34;;;;;;;19.67;9.83;;;4.60;92.60;;;;;;5046499;28;20174;-83
2021/03/14 01:06:00;;;;;;;16.20;10.67;;;4.60;92.40;;;;;;5065549;28;20175;-83
2021/03/14 01:08:26;;;;;;;16.90;11.53;;;4.50;92.40;;;;;;5045226;28;20179;-82
2021/03/14 01:10:52;;;;;;;23.50;12.77;;;4.50;92.40;;;;;;5052836;28;21085;-83
2021/03/14 01:13:17;;;;;;;16.07;10.07;;;4.50;92.40;;;;;;5048783;28;20183;-81
2021/03/14 01:15:43;;;;;;;13.67;7.93;;;4.40;92.90;;;;;;5053837;28;20180;-83
2021/03/14 01:18:11;;;;;;;18.47;10.67;;;4.40;93.00;;;;;;5046879;28;20186;-82
2021/03/14 01:20:36;;;;;;;16.17;9.30;;;4.40;92.90;;;;;;5063519;28;20214;-83
2021/03/14 01:23:02;;;;;;;22.80;13.27;;;4.40;93.00;;;;;;5085806;28;20171;-82
2021/03/14 01:25:28;;;;;;;28.87;15.40;;;4.30;92.90;;;;;;5044651;28;20239;-82
2021/03/14 01:27:54;;;;;;;22.47;12.77;;;4.30;93.00;;;;;;5046001;28;20503;-82
2021/03/14 01:30:20;;;;;;;30.10;16.40;;;4.30;93.10;;;;;;5058070;28;20186;-81
2021/03/14 01:32:47;;;;;;;37.13;18.93;;;4.30;93.10;;;;;;5035113;28;20568;-83
2021/03/14 01:35:14;;;;;;;37.97;19.80;;;4.30;93.30;;;;;;5034552;28;20265;-83
2021/03/14 01:37:40;;;;;;;38.87;19.77;;;4.30;93.10;;;;;;5058106;28;20614;-83
2021/03/14 01:40:06;;;;;;;31.20;17.53;;;4.30;93.10;;;;;;5038458;28;20282;-82
2021/03/14 01:42:34;;;;;;;35.10;16.00;;;4.30;93.00;;;;;;5041997;28;20278;-82
2021/03/14 01:44:59;;;;;;;41.53;19.60;;;4.30;93.30;;;;;;5036838;28;20210;-81
2021/03/14 01:47:36;;;;;;;41.20;20.53;;;4.30;93.10;;;;;;5045133;28;20663;-81
2021/03/14 01:50:17;;;;;;;37.33;18.80;;;4.30;93.30;;;;;;5054123;28;20270;-82
2021/03/14 01:52:43;;;;;;;36.70;20.30;;;4.30;93.00;;;;;;5065929;28;20171;-81
2021/03/14 01:55:10;;;;;;;35.90;19.77;;;4.30;93.30;;;;;;5065135;28;20186;-82
2021/03/14 01:57:36;;;;;;;30.23;14.77;;;4.20;93.20;;;;;;5064856;28;20198;-82
2021/03/14 02:00:07;;;;;;;34.80;17.00;;;4.20;93.20;;;;;;5053039;28;20242;-81
2021/03/14 02:02:33;;;;;;;36.30;17.70;;;4.20;93.20;;;;;;5058443;28;20258;-82
2021/03/14 02:04:58;;;;;;;33.50;17.77;;;4.20;93.40;;;;;;5047882;28;20814;-80
2021/03/14 02:07:24;;;;;;;24.50;13.67;;;4.20;93.50;;;;;;5038566;28;20190;-82
2021/03/14 02:09:50;;;;;;;28.67;17.03;;;4.20;93.50;;;;;;5047231;28;20193;-83
2021/03/14 02:12:19;;;;;;;29.87;15.83;;;4.10;93.40;;;;;;5045147;28;20270;-81
2021/03/14 02:14:46;;;;;;;26.57;15.80;;;4.10;93.60;;;;;;5046082;28;20190;-82
2021/03/14 02:17:18;;;;;;;29.90;15.00;;;4.10;93.60;;;;;;5065221;28;20198;-83
2021/03/14 02:19:53;;;;;;;33.60;16.30;;;4.00;93.80;;;;;;5077653;28;20198;-82
2021/03/14 02:22:24;;;;;;;29.70;15.40;;;4.00;94.10;;;;;;5040440;28;20178;-83
2021/03/14 02:24:59;;;;;;;28.60;14.13;;;4.00;94.20;;;;;;5050945;28;20190;-83
2021/03/14 02:27:25;;;;;;;23.70;13.37;;;4.00;94.30;;;;;;5050325;28;20166;-83
2021/03/14 02:29:51;;;;;;;23.10;13.33;;;4.10;94.30;;;;;;5063303;28;20191;-83
2021/03/14 02:32:20;;;;;;;27.43;15.53;;;4.10;94.50;;;;;;5032400;28;20605;-82
2021/03/14 02:34:52;;;;;;;31.83;16.33;;;4.20;94.50;;;;;;5034000;28;20191;-83
2021/03/14 02:37:19;;;;;;;26.03;12.83;;;4.20;94.70;;;;;;5054114;28;20658;-82
2021/03/14 02:39:45;;;;;;;28.03;14.87;;;4.20;95.00;;;;;;5049928;28;20313;-82
2021/03/14 02:42:13;;;;;;;40.67;15.87;;;4.30;94.70;;;;;;5034339;28;20197;-82
2021/03/14 02:44:47;;;;;;;39.10;18.37;;;4.30;94.40;;;;;;5047151;28;20202;-82
2021/03/14 02:47:13;;;;;;;35.77;17.77;;;4.40;94.10;;;;;;5043745;28;20246;-81
2021/03/14 02:49:40;;;;;;;32.27;15.03;;;4.40;93.90;;;;;;5062214;28;20190;-81
2021/03/14 02:52:06;;;;;;;26.93;14.60;;;4.30;94.20;;;;;;5044674;28;20206;-81
2021/03/14 02:54:37;;;;;;;27.33;13.60;;;4.30;94.00;;;;;;5077400;28;20274;-82
2021/03/14 02:57:03;;;;;;;35.33;15.50;;;4.30;94.00;;;;;;5066637;28;20325;-82
2021/03/14 02:59:30;;;;;;;26.43;16.37;;;4.30;94.20;;;;;;5049463;28;20183;-82
2021/03/14 03:01:57;;;;;;;27.43;14.40;;;4.30;93.90;;;;;;5057559;28;20179;-82
2021/03/14 03:04:25;;;;;;;20.70;13.53;;;4.30;93.70;;;;;;5051811;28;20719;-81
2021/03/14 03:06:56;;;;;;;21.83;12.53;;;4.30;93.70;;;;;;5053210;28;20249;-81
2021/03/14 03:09:22;;;;;;;22.07;12.80;;;4.30;93.60;;;;;;5056778;28;20769;-82
2021/03/14 03:11:53;;;;;;;28.33;13.63;;;4.20;93.50;;;;;;5040581;28;20191;-80
2021/03/14 03:14:22;;;;;;;23.83;14.23;;;4.20;93.30;;;;;;5043310;28;20206;-82
2021/03/14 03:16:51;;;;;;;22.43;12.93;;;4.20;93.20;;;;;;5050731;28;20229;-82
2021/03/14 03:19:19;;;;;;;24.90;14.90;;;4.20;93.30;;;;;;5068224;28;20186;-82
2021/03/14 03:21:46;;;;;;;32.23;16.27;;;4.20;93.30;;;;;;5046884;28;20208;-83
2021/03/14 03:24:12;;;;;;;38.00;17.33;;;4.20;93.70;;;;;;5057859;28;20187;-83
2021/03/14 03:26:41;;;;;;;29.23;16.90;;;4.20;93.80;;;;;;5063348;28;20182;-82
2021/03/14 03:29:08;;;;;;;33.73;18.13;;;4.20;93.90;;;;;;5049354;28;20583;-83
2021/03/14 03:31:33;;;;;;;33.47;18.17;;;4.20;93.90;;;;;;5050672;28;20675;-83
2021/03/14 03:33:59;;;;;;;39.43;19.27;;;4.20;93.90;;;;;;5061153;28;20179;-83
2021/03/14 03:36:25;;;;;;;36.67;18.50;;;4.20;94.00;;;;;;5043483;28;20638;-82
2021/03/14 03:38:51;;;;;;;36.00;18.90;;;4.20;93.80;;;;;;5053763;28;20190;-80
2021/03/14 03:41:16;;;;;;;33.90;17.93;;;4.20;93.80;;;;;;5068704;28;20243;-80
2021/03/14 03:43:43;;;;;;;32.97;17.80;;;4.20;93.60;;;;;;5061927;28;20210;-80
2021/03/14 03:46:10;;;;;;;28.93;17.23;;;4.20;93.60;;;;;;5039075;28;20178;-81
2021/03/14 03:48:42;;;;;;;30.07;17.47;;;4.10;93.40;;;;;;5047095;28;20250;-81
2021/03/14 03:51:08;;;;;;;33.83;18.57;;;4.10;93.30;;;;;;5043993;28;20191;-81
2021/03/14 03:53:36;;;;;;;37.97;17.90;;;4.10;93.40;;;;;;5047058;28;20194;-81
2021/03/14 03:56:03;;;;;;;27.57;15.87;;;4.10;93.40;;;;;;5047852;28;20380;-81
2021/03/14 03:58:30;;;;;;;42.40;19.40;;;4.10;93.70;;;;;;5047201;28;20199;-81
2021/03/14 04:00:57;;;;;;;36.20;19.13;;;4.00;94.20;;;;;;5044694;28;20214;-82
2021/03/14 04:03:23;;;;;;;36.03;17.97;;;4.00;94.30;;;;;;5037323;28;20191;-81
2021/03/14 04:05:55;;;;;;;36.50;17.93;;;3.90;94.60;;;;;;5035541;28;20194;-81
2021/03/14 04:08:21;;;;;;;29.53;17.30;;;3.80;94.70;;;;;;5044889;28;20796;-83
2021/03/14 04:10:47;;;;;;;32.03;17.53;;;3.80;95.50;;;;;;5065321;28;20328;-82
2021/03/14 04:13:14;;;;;;;27.53;14.67;;;3.80;95.70;;;;;;5053047;28;20218;-82
2021/03/14 04:15:40;;;;;;;20.53;13.17;;;3.80;95.30;;;;;;5034107;28;20198;-83
2021/03/14 04:18:08;;;;;;;19.90;11.97;;;3.80;94.80;;;;;;5050270;28;20184;-82
2021/03/14 04:20:37;;;;;;;20.33;12.00;;;3.80;95.00;;;;;;5032297;28;20845;-82
2021/03/14 04:23:07;;;;;;;20.40;12.37;;;3.80;94.80;;;;;;5055767;28;20620;-81
2021/03/14 04:25:36;;;;;;;20.73;11.77;;;3.80;94.60;;;;;;5047968;28;20194;-82
2021/03/14 04:28:03;;;;;;;23.83;10.93;;;3.70;94.60;;;;;;5042784;28;20239;-83
2021/03/14 04:30:32;;;;;;;20.47;12.70;;;3.70;94.40;;;;;;5041900;28;20183;-83
2021/03/14 04:32:59;;;;;;;25.40;14.37;;;3.70;94.20;;;;;;5052415;28;20758;-82
2021/03/14 04:35:26;;;;;;;27.97;16.47;;;3.70;94.40;;;;;;5062497;28;20175;-83
2021/03/14 04:37:53;;;;;;;29.77;15.07;;;3.70;94.50;;;;;;5068129;28;20187;-83
2021/03/14 04:40:20;;;;;;;27.83;15.50;;;3.70;94.40;;;;;;5064891;28;20288;-83
2021/03/14 04:42:48;;;;;;;30.60;16.40;;;3.70;94.30;;;;;;5043801;28;20176;-81
2021/03/14 04:45:15;;;;;;;29.87;16.87;;;3.60;94.30;;;;;;5071202;28;20643;-79
2021/03/14 04:47:43;;;;;;;33.17;17.00;;;3.60;94.40;;;;;;5043777;28;20193;-81
2021/03/14 04:50:11;;;;;;;27.70;15.33;;;3.60;94.40;;;;;;5054445;28;20188;-82
2021/03/14 04:52:37;;;;;;;29.00;15.17;;;3.60;94.40;;;;;;5040948;28;20191;-81
2021/03/14 04:55:05;;;;;;;30.20;16.07;;;3.60;94.40;;;;;;5069862;28;20186;-82
2021/03/14 04:57:32;;;;;;;36.47;18.07;;;3.60;94.50;;;;;;5061166;28;20190;-83
2021/03/14 05:00:00;;;;;;;30.80;16.57;;;3.60;94.60;;;;;;5045573;28;20309;-83
2021/03/14 05:02:27;;;;;;;30.70;15.67;;;3.60;94.60;;;;;;5057615;28;20258;-82
2021/03/14 05:04:55;;;;;;;27.50;15.13;;;3.60;94.60;;;;;;5066924;28;20791;-81
2021/03/14 05:07:21;;;;;;;35.67;18.87;;;3.60;94.60;;;;;;5064718;28;20714;-81
2021/03/14 05:09:48;;;;;;;32.10;16.73;;;3.70;94.70;;;;;;5074637;28;20215;-82
2021/03/14 05:12:14;;;;;;;39.50;19.20;;;3.70;94.70;;;;;;5036047;28;20195;-82
2021/03/14 05:14:40;;;;;;;34.83;15.80;;;3.70;94.80;;;;;;5046153;28;20580;-81
2021/03/14 05:17:06;;;;;;;36.07;20.90;;;3.70;94.90;;;;;;5040815;28;20190;-82
2021/03/14 05:19:32;;;;;;;45.47;20.17;;;3.80;94.90;;;;;;5055973;28;20216;-82
2021/03/14 05:21:59;;;;;;;37.60;19.03;;;3.80;94.80;;;;;;5049030;28;20218;-83
2021/03/14 05:24:27;;;;;;;37.03;17.53;;;3.80;94.90;;;;;;5052864;28;20194;-83
2021/03/14 05:26:53;;;;;;;44.73;18.93;;;3.80;94.80;;;;;;5043176;28;20681;-80
2021/03/14 05:29:20;;;;;;;35.77;17.73;;;3.80;94.80;;;;;;5070890;28;20287;-88
2021/03/14 05:31:47;;;;;;;45.70;21.07;;;3.80;94.80;;;;;;5045157;28;20693;-88
2021/03/14 05:34:17;;;;;;;36.73;17.87;;;3.80;94.70;;;;;;5062533;28;20569;-88
2021/03/14 05:36:44;;;;;;;32.20;17.57;;;3.80;94.70;;;;;;5088797;28;20182;-87
2021/03/14 05:39:10;;;;;;;28.40;16.77;;;3.90;94.80;;;;;;5049337;28;20183;-87
2021/03/14 05:41:37;;;;;;;38.07;18.17;;;3.90;94.70;;;;;;5038390;28;20212;-87
2021/03/14 05:44:04;;;;;;;32.57;17.93;;;3.90;94.70;;;;;;5057305;28;20182;-87
2021/03/14 05:46:31;;;;;;;37.73;18.10;;;4.00;94.70;;;;;;5040188;28;20180;-87
2021/03/14 05:48:57;;;;;;;37.90;17.97;;;4.00;94.60;;;;;;5063611;28;20185;-86
2021/03/14 05:51:28;;;;;;;32.47;16.57;;;4.00;94.60;;;;;;5070221;28;20281;-86
2021/03/14 05:53:58;;;;;;;31.73;17.83;;;4.10;94.50;;;;;;5037510;28;20637;-88
2021/03/14 05:56:25;;;;;;;31.03;17.33;;;4.10;94.50;;;;;;5042842;28;20191;-86
2021/03/14 05:58:52;;;;;;;39.43;17.57;;;4.20;94.50;;;;;;5061191;28;20253;-86
2021/03/14 06:01:23;;;;;;;34.80;19.10;;;4.20;95.00;;;;;;5049337;28;20207;-88
2021/03/14 06:03:50;;;;;;;44.23;19.50;;;4.20;94.70;;;;;;5041171;28;20197;-87
2021/03/14 06:06:16;;;;;;;32.77;17.40;;;4.30;95.00;;;;;;5041569;28;20718;-87
2021/03/14 06:08:42;;;;;;;26.00;15.47;;;4.40;95.10;;;;;;5072063;28;20187;-87
2021/03/14 06:11:11;;;;;;;32.80;17.47;;;4.40;94.90;;;;;;5060003;28;20559;-90
2021/03/14 06:13:37;;;;;;;23.03;14.03;;;4.40;94.60;;;;;;5071031;28;20197;-89
2021/03/14 06:16:02;;;;;;;28.10;14.50;;;4.50;94.70;;;;;;5045766;28;20187;-87
2021/03/14 06:18:28;;;;;;;20.67;12.87;;;4.50;94.50;;;;;;5040429;28;20238;-86
2021/03/14 06:20:55;;;;;;;28.87;14.23;;;4.60;94.40;;;;;;5061972;28;20214;-86
2021/03/14 06:23:23;;;;;;;23.90;13.17;;;4.60;94.20;;;;;;5063858;28;20194;-86
2021/03/14 06:25:52;;;;;;;21.57;12.50;;;4.70;94.20;;;;;;5050533;28;20996;-86
2021/03/14 06:28:34;;;;;;;23.47;13.33;;;4.70;94.00;;;;;;5041262;28;20236;-87
2021/03/14 06:31:16;;;;;;;28.90;12.07;;;4.70;93.80;;;;;;5052847;28;20788;-87
2021/03/14 06:33:43;;;;;;;19.27;11.70;;;4.80;93.70;;;;;;5064215;28;20245;-87
2021/03/14 06:36:17;;;;;;;17.13;10.63;;;4.90;93.90;;;;;;5064204;28;20272;-87
2021/03/14 06:38:43;;;;;;;14.87;10.50;;;5.00;93.60;;;;;;5054582;28;20194;-86
2021/03/14 06:41:22;;;;;;;16.83;10.17;;;5.10;93.50;;;;;;5050142;28;20198;-88
2021/03/14 06:43:56;;;;;;;18.50;11.90;;;5.10;93.40;;;;;;5054036;28;20171;-86
2021/03/14 06:46:24;;;;;;;25.70;15.27;;;5.20;93.20;;;;;;5041553;28;20187;-87
2021/03/14 06:49:19;;;;;;;23.10;12.87;;;5.20;93.20;;;;;;5077993;28;20247;-87
2021/03/14 06:51:48;;;;;;;25.27;14.97;;;5.40;92.90;;;;;;5070210;28;20686;-87
2021/03/14 06:54:22;;;;;;;30.30;16.80;;;5.40;92.70;;;;;;5040606;28;20187;-86
2021/03/14 06:57:00;;;;;;;29.73;16.70;;;5.50;92.60;;;;;;5052208;28;20183;-87
2021/03/14 06:59:27;;;;;;;27.40;16.57;;;5.60;91.90;;;;;;5052007;28;20223;-87
2021/03/14 07:02:01;;;;;;;29.27;15.87;;;5.70;92.10;;;;;;5061704;28;20202;-87
2021/03/14 07:04:34;;;;;;;23.67;13.70;;;5.70;91.40;;;;;;5043707;28;20187;-88
2021/03/14 07:07:00;;;;;;;30.60;16.90;;;5.80;91.30;;;;;;5031777;28;20583;-77
2021/03/14 07:09:26;;;;;;;28.03;15.20;;;5.90;91.60;;;;;;5045822;28;20190;-86
2021/03/14 07:11:52;;;;;;;22.57;15.40;;;5.90;91.70;;;;;;5044384;28;20196;-80
2021/03/14 07:14:20;;;;;;;30.53;17.83;;;6.00;91.50;;;;;;5055310;28;20192;-85
2021/03/14 07:16:49;;;;;;;27.17;15.43;;;6.10;90.60;;;;;;5054555;28;20182;-73
2021/03/14 07:19:36;;;;;;;29.97;16.67;;;6.20;90.60;;;;;;5066316;28;20195;-85
2021/03/14 07:22:08;;;;;;;24.37;15.00;;;6.30;90.70;;;;;;5049523;28;20187;-85
2021/03/14 07:24:42;;;;;;;25.77;16.17;;;6.30;90.60;;;;;;5041097;28;20294;-85
2021/03/14 07:27:13;;;;;;;26.17;13.57;;;6.50;90.30;;;;;;5048406;28;20174;-84
2021/03/14 07:29:41;;;;;;;27.30;12.37;;;6.50;90.80;;;;;;5058202;28;20175;-84
2021/03/14 07:32:08;;;;;;;23.63;12.37;;;6.60;90.80;;;;;;5042306;28;20189;-84
2021/03/14 07:34:34;;;;;;;20.90;12.97;;;6.80;90.10;;;;;;5036745;28;20190;-84
2021/03/14 07:37:01;;;;;;;23.67;13.47;;;6.90;89.90;;;;;;5061877;28;20183;-82
2021/03/14 07:39:27;;;;;;;21.20;13.70;;;6.90;89.80;;;;;;5046580;28;20627;-80
2021/03/14 07:41:53;;;;;;;20.40;14.43;;;7.10;89.60;;;;;;5066300;28;20203;-86
2021/03/14 07:44:23;;;;;;;22.57;13.97;;;7.20;89.20;;;;;;5047879;28;20180;-86
2021/03/14 07:46:52;;;;;;;26.93;13.07;;;7.40;89.10;;;;;;5040789;28;20194;-83
2021/03/14 07:49:20;;;;;;;23.63;13.83;;;7.50;89.00;;;;;;5062485;28;20562;-87
2021/03/14 07:51:49;;;;;;;21.47;14.00;;;7.60;88.90;;;;;;5046928;28;20189;-83
2021/03/14 07:54:48;;;;;;;24.03;15.53;;;7.80;88.40;;;;;;5079775;28;20209;-84
2021/03/14 07:57:20;;;;;;;21.53;12.67;;;8.00;87.40;;;;;;5056093;28;20845;-86
2021/03/14 07:59:46;;;;;;;30.67;17.70;;;8.20;87.00;;;;;;5049713;28;20615;-85
2021/03/14 08:02:21;;;;;;;29.37;15.57;;;8.50;86.10;;;;;;5040079;28;20187;-79
2021/03/14 08:05:00;;;;;;;25.90;16.33;;;8.90;85.00;;;;;;5073225;28;20177;-86
2021/03/14 08:07:35;;;;;;;28.53;16.00;;;9.30;83.90;;;;;;5049304;28;20183;-87
2021/03/14 08:10:02;;;;;;;18.67;13.37;;;10.00;82.20;;;;;;5047265;28;20656;-86
2021/03/14 08:12:38;;;;;;;25.57;15.57;;;10.50;80.40;;;;;;5063055;28;20218;-84
2021/03/14 08:15:23;;;;;;;21.50;14.90;;;11.20;80.60;;;;;;5063827;28;20683;-86
2021/03/14 08:17:49;;;;;;;25.27;14.10;;;12.10;78.10;;;;;;5042558;28;20213;-86
2021/03/14 08:20:33;;;;;;;21.93;14.67;;;13.10;75.50;;;;;;5043637;28;20218;-85
2021/03/14 08:23:01;;;;;;;18.63;13.90;;;14.00;73.60;;;;;;5037631;28;20265;-87
2021/03/14 08:25:30;;;;;;;20.45;12.80;;;15.00;71.10;;;;;;5060081;28;20180;-81
2021/03/14 08:27:59;;;;;;;19.73;13.52;;;16.00;69.30;;;;;;5049138;28;20252;-85
2021/03/14 08:30:31;;;;;;;17.50;12.65;;;16.90;66.70;;;;;;5057515;28;20183;-87
2021/03/14 08:33:21;;;;;;;19.48;14.77;;;17.80;65.10;;;;;;5045820;28;20222;-86
2021/03/14 08:35:54;;;;;;;18.20;13.43;;;18.40;63.20;;;;;;5044372;28;20180;-87
2021/03/14 08:38:26;;;;;;;26.40;15.40;;;19.00;63.20;;;;;;5050769;28;20205;-85
2021/03/14 08:41:40;;;;;;;25.52;14.73;;;19.70;62.30;;;;;;5058207;28;20237;-86
2021/03/14 08:44:06;;;;;;;24.35;14.80;;;20.40;60.50;;;;;;4989514;28;20189;-85
2021/03/14 08:46:50;;;;;;;25.35;15.57;;;21.20;59.50;;;;;;4993127;28;20233;-86
2021/03/14 08:49:18;;;;;;;19.73;15.45;;;21.70;58.10;;;;;;4993486;28;20196;-86
2021/03/14 08:51:44;;;;;;;20.88;14.88;;;22.20;57.30;;;;;;4992754;28;20300;-85
2021/03/14 08:54:11;;;;;;;18.95;14.18;;;22.70;56.00;;;;;;4998064;28;20279;-86
2021/03/14 08:56:37;;;;;;;18.27;14.20;;;23.10;55.80;;;;;;4992537;28;20216;-88
2021/03/14 08:59:14;;;;;;;14.20;12.70;;;23.40;54.70;;;;;;5008693;28;20193;-87
2021/03/14 09:01:41;;;;;;;26.95;13.52;;;23.60;54.60;;;;;;4992208;28;20285;-87
2021/03/14 09:04:14;;;;;;;16.85;12.48;;;24.00;54.10;;;;;;4990989;28;20208;-77
2021/03/14 09:06:40;;;;;;;14.40;11.80;;;24.40;54.40;;;;;;5004814;28;20192;-76
2021/03/14 09:09:10;;;;;;;17.08;12.15;;;24.90;53.40;;;;;;5004337;28;20193;-76
2021/03/14 09:11:44;;;;;;;18.00;12.23;;;25.30;52.20;;;;;;4983324;28;20189;-76
2021/03/14 09:14:35;;;;;;;14.48;12.43;;;25.70;51.30;;;;;;5004386;28;20197;-81
2021/03/14 09:17:10;;;;;;;16.83;12.25;;;26.20;52.50;;;;;;4989485;28;20790;-83
2021/03/14 09:19:45;;;;;;;14.77;12.20;;;26.80;51.90;;;;;;5007224;28;20193;-82
2021/03/14 09:22:22;;;;;;;17.85;12.68;;;27.40;51.40;;;;;;5057323;28;20175;-92
2021/03/14 09:24:49;;;;;;;16.48;13.50;;;27.90;50.30;;;;;;5038610;28;20190;-91
2021/03/14 09:27:26;;;;;;;15.32;12.43;;;28.30;49.90;;;;;;5054442;28;20264;-84
2021/03/14 09:30:17;;;;;;;16.05;11.63;;;28.70;49.30;;;;;;5052103;28;20203;-83
2021/03/14 09:33:01;;;;;;;18.58;11.00;;;29.20;47.20;;;;;;5044676;28;20206;-76
2021/03/14 09:35:34;;;;;;;12.98;11.18;;;29.20;44.50;;;;;;5066622;28;20175;-76
2021/03/14 09:38:02;;;;;;;16.77;12.45;;;29.10;47.70;;;;;;5067241;28;20179;-75
2021/03/14 09:40:30;;;;;;;20.50;13.13;;;29.00;45.90;;;;;;5050626;28;20263;-85
2021/03/14 09:43:12;;;;;;;16.17;10.85;;;29.10;48.50;;;;;;5059772;28;20966;-87
2021/03/14 09:45:40;;;;;;;16.25;11.48;;;29.50;45.90;;;;;;5042520;28;20178;-78
2021/03/14 09:48:09;;;;;;;17.50;11.02;;;30.00;46.90;;;;;;5075139;28;20258;-79
2021/03/14 09:50:58;;;;;;;12.85;11.27;;;30.60;47.40;;;;;;5051415;28;20289;-81
2021/03/14 09:53:27;;;;;;;13.15;10.25;;;31.10;46.90;;;;;;5060010;28;20178;-86
2021/03/14 09:55:56;;;;;;;11.93;10.77;;;31.50;46.60;;;;;;5042397;28;20175;-85
2021/03/14 09:58:24;;;;;;;13.15;11.05;;;31.80;46.10;;;;;;5048299;28;20519;-81
2021/03/14 10:00:51;;;;;;;14.02;10.40;;;32.00;44.50;;;;;;5032030;28;20191;-81
2021/03/14 10:03:20;;;;;;;11.90;10.43;;;32.00;43.90;;;;;;5053092;28;20675;-80
2021/03/14 10:05:52;;;;;;;11.40;10.35;;;32.00;44.10;;;;;;5041619;28;20183;-80
2021/03/14 10:08:30;;;;;;;12.18;10.10;;;32.00;45.00;;;;;;5072804;28;20182;-81
2021/03/14 10:11:03;;;;;;;13.68;11.65;;;32.10;43.60;;;;;;5052440;28;20215;-81
2021/03/14 10:13:30;;;;;;;12.27;11.02;;;32.20;43.60;;;;;;5041062;28;20197;-81
2021/03/14 10:16:01;;;;;;;11.35;10.23;;;32.20;42.60;;;;;;5046609;28;20186;-81
2021/03/14 10:18:28;;;;;;;10.13;8.57;;;32.30;44.60;;;;;;5063054;28;20174;-81
2021/03/14 10:21:23;;;;;;;9.60;8.70;;;32.50;43.80;;;;;;5061015;28;20650;-82
2021/03/14 10:23:50;;;;;;;10.77;9.25;;;32.60;41.70;;;;;;5068236;28;20179;-84
2021/03/14 10:26:16;;;;;;;10.65;8.55;;;32.40;42.60;;;;;;5063168;28;20186;-84
2021/03/14 10:28:45;;;;;;;11.57;9.98;;;32.00;41.60;;;;;;5069046;28;20187;-81
2021/03/14 10:31:12;;;;;;;10.63;8.80;;;31.70;43.20;;;;;;5042919;28;20760;-82
2021/03/14 10:33:43;;;;;;;8.02;7.32;;;31.40;43.30;;;;;;5041855;28;20328;-83
2021/03/14 10:36:14;;;;;;;10.18;8.95;;;31.70;45.10;;;;;;5060412;28;20698;-82
2021/03/14 10:38:48;;;;;;;10.52;8.23;;;31.90;45.00;;;;;;5061903;28;20186;-82
2021/03/14 10:41:17;;;;;;;8.90;8.05;;;32.20;42.20;;;;;;5074043;28;20551;-83
2021/03/14 10:43:54;;;;;;;9.63;8.13;;;32.50;41.20;;;;;;5057541;28;20181;-81
2021/03/14 10:46:38;;;;;;;7.93;7.22;;;32.80;41.60;;;;;;5060203;28;21187;-81
2021/03/14 10:49:18;;;;;;;8.70;7.90;;;33.30;41.70;;;;;;5060487;28;20258;-81
2021/03/14 10:51:49;;;;;;;8.48;7.72;;;33.50;40.40;;;;;;5044250;28;20210;-81
2021/03/14 10:54:17;;;;;;;9.25;8.35;;;33.10;42.00;;;;;;5059226;28;20175;-82
2021/03/14 10:56:45;;;;;;;8.15;7.45;;;32.80;40.70;;;;;;5065346;28;20183;-81
2021/03/14 10:59:27;;;;;;;8.25;7.47;;;32.40;42.10;;;;;;5060199;28;20194;-81
2021/03/14 11:02:00;;;;;;;8.77;7.53;;;32.10;40.80;;;;;;5059475;28;20187;-82
2021/03/14 11:04:28;;;;;;;7.80;7.05;;;32.10;41.30;;;;;;5049905;28;20981;-88
2021/03/14 11:06:55;;;;;;;8.52;7.63;;;32.10;43.40;;;;;;5070970;28;20187;-85
2021/03/14 11:09:21;;;;;;;7.25;6.70;;;32.60;41.90;;;;;;5065556;28;20183;-86
2021/03/14 11:11:49;;;;;;;8.30;7.57;;;32.90;41.90;;;;;;5067848;28;20203;-84
2021/03/14 11:14:38;;;;;;;7.85;7.15;;;32.80;42.10;;;;;;5063749;28;20223;-85
2021/03/14 11:17:18;;;;;;;5.50;5.10;;;32.60;40.30;;;;;;5043332;28;20184;-85
2021/03/14 11:19:48;;;;;;;5.93;5.32;;;32.40;40.10;;;;;;5046685;28;20190;-85
2021/03/14 11:22:15;;;;;;;4.65;4.32;;;32.10;41.30;;;;;;5060260;28;20202;-81
2021/03/14 11:24:41;;;;;;;7.95;5.70;;;31.80;41.90;;;;;;5064023;28;20213;-77
2021/03/14 11:27:08;;;;;;;5.07;4.78;;;31.70;42.90;;;;;;5060459;28;20187;-77
2021/03/14 11:29:34;;;;;;;2.67;2.58;;;31.60;40.80;;;;;;5065373;28;20210;-78
2021/03/14 11:32:00;;;;;;;2.17;2.17;;;31.00;41.60;;;;;;5063847;28;20237;-78
2021/03/14 11:34:26;;;;;;;2.75;2.55;;;30.60;41.40;;;;;;5062895;28;20175;-77
2021/03/14 11:36:52;;;;;;;2.80;2.70;;;30.40;41.00;;;;;;5060268;28;20206;-77
2021/03/14 11:39:18;;;;;;;4.00;2.92;;;30.40;42.00;;;;;;5064134;28;20171;-77
2021/03/14 11:41:45;;;;;;;2.47;2.42;;;29.60;41.70;;;;;;5067805;28;20663;-76
2021/03/14 11:44:11;;;;;;;3.72;2.20;;;29.20;41.50;;;;;;5067921;28;20182;-76
2021/03/14 11:46:37;;;;;;;1.88;1.77;;;29.30;41.00;;;;;;5078654;28;20290;-76
2021/03/14 11:49:04;;;;;;;1.88;1.73;;;29.40;40.70;;;;;;5068970;28;20190;-77
2021/03/14 11:51:29;;;;;;;3.00;1.70;;;29.10;39.10;;;;;;5072972;28;20752;-77
2021/03/14 11:53:58;;;;;;;1.52;1.42;;;28.70;41.40;;;;;;5068266;28;20209;-77
2021/03/14 11:56:24;;;;;;;1.77;1.67;;;28.80;41.10;;;;;;5072685;28;20178;-76
2021/03/14 11:58:50;;;;;;;1.60;1.60;;;29.10;40.40;;;;;;5072693;28;20175;-78
2021/03/14 12:01:15;;;;;;;1.48;1.48;;;29.50;39.60;;;;;;5068365;28;20694;-77
2021/03/14 12:03:41;;;;;;;1.02;1.02;;;28.50;40.20;;;;;;5068369;28;20183;-77
2021/03/14 12:06:07;;;;;;;1.55;1.50;;;27.60;41.30;;;;;;5064282;28;20179;-77
2021/03/14 12:08:33;;;;;;;1.23;1.23;;;27.60;41.50;;;;;;5050974;28;20182;-80
2021/03/14 12:11:01;;;;;;;1.60;1.60;;;28.10;42.10;;;;;;5069996;28;20203;-78
2021/03/14 12:13:27;;;;;;;1.20;1.20;;;28.90;41.20;;;;;;5066794;28;20180;-76
2021/03/14 12:15:53;;;;;;;1.20;1.20;;;29.80;41.50;;;;;;5051908;28;20191;-77
2021/03/14 12:18:18;;;;;;;0.85;0.85;;;30.30;40.70;;;;;;5049173;28;20630;-76
2021/03/14 12:20:44;;;;;;;1.10;1.10;;;30.80;39.60;;;;;;5073637;28;20195;-77
2021/03/14 12:23:11;;;;;;;1.17;1.08;;;31.50;39.00;;;;;;5066816;28;20210;-79
2021/03/14 12:25:37;;;;;;;1.20;1.20;;;32.20;39.60;;;;;;5066409;28;20210;-74
2021/03/14 12:28:04;;;;;;;1.45;1.25;;;33.00;40.10;;;;;;5066016;28;21548;-75
2021/03/14 12:30:30;;;;;;;1.08;1.05;;;33.40;39.50;;;;;;5070247;28;20305;-75
2021/03/14 12:32:55;;;;;;;1.42;1.40;;;32.80;38.00;;;;;;5065902;28;20239;-81
2021/03/14 12:35:22;;;;;;;1.42;1.38;;;31.70;39.80;;;;;;5054431;28;21173;-77
2021/03/14 12:37:47;;;;;;;1.38;1.33;;;31.00;39.80;;;;;;5067240;28;20181;-75
2021/03/14 12:40:14;;;;;;;1.92;1.20;;;29.30;40.30;;;;;;5066365;28;20564;-78
2021/03/14 12:42:39;;;;;;;1.02;1.02;;;28.30;41.30;;;;;;5066251;28;20769;-78
2021/03/14 12:45:06;;;;;;;1.00;1.00;;;27.10;43.10;;;;;;5058398;28;20190;-78
2021/03/14 12:47:32;;;;;;;1.02;1.02;;;26.30;42.60;;;;;;5052138;28;20912;-74